Airfield :
LOGIN :

Register | Disclaimer

   EN    FR    IT 

 










Legend :    VFR   Marginal VFR   IFR   Intensive IFR   Very Intensive IFR
Visi :
Ceiling :
>= 8 km
>= 3000ft
5 to 8 km
1000 to 3000 ft
1500m to 5 km
500 to 1000 ft
800 to 1500m
200 to 500 ft
< 800m
< 200 ft
Symbols :   Thunderstorms  Fog  Heavy snow  Heavy precipitations  Wind > 20 kt
SIGMETs :     Misc.  Thunderstorms  Icing  Turbulence  Mountain Waves  Volcanic Ashes







- Airport Elevation : -11 ft
- IATA code : AMS


EHAM - Amsterdam Schiphol

CURRENT METAR :
  • 242125Z 24011KT CAVOK 06/03 Q1024 NOSIG

EXPIRED METARs :
  • 242055Z 23012KT CAVOK 06/03 Q1024 NOSIG
  • 242025Z 23010KT 200V260 CAVOK 06/03 Q1025 NOSIG
  • 241955Z 24011KT CAVOK 07/03 Q1025 NOSIG
  • 241925Z 24010KT CAVOK 06/03 Q1025 NOSIG
  • 241855Z 25008KT CAVOK 06/02 Q1025 NOSIG

TAF COR TAF EHAM
Valid from the 24 at 18:00 until the 26 at 00:00 UTC


241813Z 2418/2524 27010KT 9999 FEW025
BECMG 2418/2420 23008KT CAVOK
BECMG 2421/2423 29017KT
BECMG 2423/2501 31018G28KT BKN025
TEMPO 2500/2502 6000 RA SHRA SCT018TCU BKN025
TEMPO 2506/2510 6000 SHRA SCT020CB BKN025
BECMG 2507/2509 33024G34KT
BECMG 2514/2517 35018G28KT
BECMG 2517/2520 33010KT
No reported NOTAMs for that airfield.



MET'MAP, your aeronautical weather chart ! - Copyright ORBIFLY December 2007 - Disclaimer

ORBIFLY MET'MAP TEAM :

Programming & Development : Alexandra Zaïnal
Concept & Development : Baudouin d'Aumeries
Co-Development & Prog : Marc-Olivier Méhu
Technical & hardware support : Manuel Goepfert

Contact : metmap@orbifly.com




SOURCES & CREDITS :

   NOAA